createdAt,value
2023-03-10T00:03:43.126Z,99321.09
2023-03-10T00:09:06.196Z,99310.77
2023-03-10T00:14:28.431Z,99295.11
2023-03-10T00:19:51.071Z,99283.94
2023-03-10T00:25:14.427Z,99293.80
2023-03-10T00:30:37.555Z,99290.39
2023-03-10T00:36:10.569Z,99280.87
2023-03-10T00:41:36.905Z,99282.70
2023-03-10T00:46:59.572Z,99267.06
2023-03-10T00:52:21.968Z,99261.87
2023-03-10T00:57:44.252Z,99255.97
2023-03-10T01:03:06.495Z,99237.86
2023-03-10T01:08:29.137Z,99216.87
2023-03-10T01:13:53.465Z,99194.99
2023-03-10T01:19:18.581Z,99192.53
2023-03-10T01:24:41.084Z,99183.02
2023-03-10T01:30:03.299Z,99176.89
2023-03-10T01:35:28.873Z,99170.77
2023-03-10T01:40:54.081Z,99161.09
2023-03-10T01:46:36.442Z,99167.34
2023-03-10T01:52:04.395Z,99144.57
2023-03-10T01:57:29.966Z,99135.05
2023-03-10T02:03:12.562Z,99130.64
2023-03-10T02:08:38.170Z,99099.03
2023-03-10T02:14:01.458Z,99098.27
2023-03-10T02:19:43.551Z,99105.31
2023-03-10T02:25:22.714Z,99091.39
2023-03-10T02:30:51.239Z,99086.13
2023-03-10T02:36:22.384Z,99061.48
2023-03-10T02:41:51.446Z,99060.55
2023-03-10T02:47:13.832Z,99058.67
2023-03-10T02:52:43.895Z,99024.35
2023-03-10T02:58:06.094Z,99016.36
2023-03-10T03:03:30.536Z,99014.52
2023-03-10T03:08:53.394Z,99003.05
2023-03-10T03:14:18.323Z,98994.30
2023-03-10T03:19:39.859Z,98993.19
2023-03-10T03:25:02.271Z,98978.23
2023-03-10T03:30:31.627Z,98965.91
2023-03-10T03:35:56.542Z,98961.66
2023-03-10T03:41:19.302Z,98945.02
2023-03-10T03:46:41.698Z,98948.49
2023-03-10T03:52:04.067Z,98948.41
2023-03-10T03:57:26.312Z,98931.75
2023-03-10T04:02:48.920Z,98922.82
2023-03-10T04:08:11.453Z,98901.75
2023-03-10T04:13:34.063Z,98893.76
2023-03-10T04:18:56.322Z,98883.22
2023-03-10T04:24:19.037Z,98857.73
2023-03-10T04:29:41.395Z,98849.77
2023-03-10T04:35:03.964Z,98842.80
2023-03-10T04:40:26.681Z,98829.63
2023-03-10T04:45:49.467Z,98824.27
2023-03-10T04:51:19.084Z,98804.89
2023-03-10T04:56:41.797Z,98794.34
2023-03-10T05:02:04.104Z,98787.30
2023-03-10T05:07:26.447Z,98771.39
2023-03-10T05:12:50.586Z,98768.66
2023-03-10T05:18:12.984Z,98763.30
2023-03-10T05:23:36.135Z,98744.02
2023-03-10T05:28:58.594Z,98741.28
2023-03-10T05:34:20.937Z,98724.73
2023-03-10T05:39:44.263Z,98715.98
2023-03-10T05:45:06.660Z,98708.08
2023-03-10T05:50:30.148Z,98689.37
2023-03-10T05:55:52.376Z,98679.39
2023-03-10T06:01:14.842Z,98670.18
2023-03-10T06:06:37.168Z,98660.97
2023-03-10T06:11:59.924Z,98651.27
2023-03-10T06:17:22.205Z,98648.34
2023-03-10T06:22:44.422Z,98657.67
2023-03-10T06:28:09.591Z,98659.06
2023-03-10T06:33:31.279Z,98659.84
2023-03-10T06:38:54.237Z,98670.18
2023-03-10T06:44:18.535Z,98670.83
2023-03-10T06:49:42.342Z,98659.06
2023-03-10T06:55:04.838Z,98659.61
2023-03-10T07:00:28.851Z,98648.11
2023-03-10T07:05:51.126Z,98639.19
2023-03-10T07:11:13.849Z,98620.52
2023-03-10T07:16:36.912Z,98612.23
2023-03-10T07:21:59.207Z,98609.28
2023-03-10T07:27:21.781Z,98591.66
2023-03-10T07:32:44.156Z,98587.05
2023-03-10T07:38:06.806Z,98593.17
2023-03-10T07:43:29.116Z,98591.45
2023-03-10T07:48:53.275Z,98563.95
2023-03-10T07:54:16.434Z,98563.73
2023-03-10T07:59:39.113Z,98553.74
2023-03-10T08:05:01.528Z,98541.19
2023-03-10T08:10:25.576Z,98534.67
2023-03-10T08:15:48.226Z,98535.75
2023-03-10T08:21:12.290Z,98526.43
2023-03-10T08:26:36.046Z,98525.70
2023-03-10T08:31:58.369Z,98514.08
2023-03-10T08:37:21.547Z,98515.48
2023-03-10T08:42:48.624Z,98513.36
2023-03-10T08:48:11.967Z,98507.89
2023-03-10T08:53:34.279Z,98501.66
2023-03-10T08:59:01.296Z,98502.69
2023-03-10T09:04:24.850Z,98497.74
2023-03-10T09:09:47.079Z,98500.20
2023-03-10T09:15:09.346Z,98487.28
2023-03-10T09:20:32.229Z,98492.56
2023-03-10T09:25:55.412Z,98482.34
2023-03-10T09:31:23.260Z,98482.01
2023-03-10T09:36:46.299Z,98471.15
2023-03-10T09:42:48.045Z,98472.20
2023-03-10T09:48:50.297Z,98468.30
2023-03-10T09:54:29.479Z,98475.24
2023-03-10T09:59:59.477Z,98465.06
2023-03-10T10:05:31.306Z,98451.73
2023-03-10T10:11:02.766Z,98453.72
2023-03-10T10:16:42.128Z,98440.01
2023-03-10T10:22:23.978Z,98436.95
2023-03-10T10:27:48.068Z,98433.13
2023-03-10T10:33:20.435Z,98426.62
2023-03-10T10:38:44.747Z,98418.03
2023-03-10T10:44:14.489Z,98419.16
2023-03-10T10:49:46.902Z,98403.73
2023-03-10T10:55:16.076Z,98418.80
2023-03-10T11:00:47.864Z,98405.02
2023-03-10T11:06:24.859Z,98405.19
2023-03-10T11:11:55.717Z,98389.72
2023-03-10T11:17:47.616Z,98398.69
2023-03-10T11:23:50.692Z,98390.25
2023-03-10T11:29:27.041Z,98388.08
2023-03-10T11:34:56.909Z,98389.27
2023-03-10T11:40:51.424Z,98393.12
2023-03-10T11:46:22.935Z,98383.03
2023-03-10T11:51:55.402Z,98387.47
2023-03-10T11:57:29.855Z,98382.91
2023-03-10T12:03:08.441Z,98372.48
2023-03-10T12:08:37.866Z,98380.20
2023-03-10T12:14:14.192Z,98381.50
2023-03-10T12:19:37.161Z,98382.09
2023-03-10T12:25:04.560Z,98387.14
2023-03-10T12:30:51.921Z,98392.20
2023-03-10T12:36:30.017Z,98384.86
2023-03-10T12:42:04.865Z,98379.97
2023-03-10T12:47:47.295Z,98374.80
2023-03-10T12:53:14.370Z,98374.31
2023-03-10T12:58:40.717Z,98380.59
2023-03-10T13:04:10.205Z,98379.27
2023-03-10T13:09:44.615Z,98368.30
2023-03-10T13:15:09.982Z,98376.81
2023-03-10T13:20:34.991Z,98372.99
2023-03-10T13:26:09.142Z,98380.09
2023-03-10T13:31:36.402Z,98375.76
2023-03-10T13:36:59.709Z,98378.13
2023-03-10T13:42:42.811Z,98378.70
2023-03-10T13:47:55.936Z,98382.91
2023-03-10T13:53:20.598Z,98397.93
2023-03-10T13:58:45.048Z,98407.18
2023-03-10T14:04:13.863Z,98419.27
2023-03-10T14:09:42.737Z,98402.09
2023-03-10T14:15:06.699Z,98399.25
2023-03-10T14:20:50.320Z,98403.61
2023-03-10T14:26:14.669Z,98402.45
2023-03-10T14:31:41.818Z,98396.08
2023-03-10T14:37:04.521Z,98400.05
2023-03-10T14:42:31.483Z,98393.12
2023-03-10T14:47:54.316Z,98398.28
2023-03-10T14:53:19.503Z,98388.59
2023-03-10T14:58:52.710Z,98397.81
2023-03-10T15:04:24.649Z,98398.73
2023-03-10T15:09:48.522Z,98381.42
2023-03-10T15:15:16.693Z,98387.55
2023-03-10T15:20:40.601Z,98386.86
2023-03-10T15:26:05.298Z,98372.08
2023-03-10T15:31:27.652Z,98380.13
2023-03-10T15:36:51.268Z,98381.20
2023-03-10T15:42:13.822Z,98389.22
2023-03-10T15:47:36.352Z,98399.30
2023-03-10T15:53:01.339Z,98393.89
2023-03-10T15:58:25.080Z,98378.27
2023-03-10T16:03:49.568Z,98377.43
2023-03-10T16:09:12.153Z,98368.86
2023-03-10T16:14:35.329Z,98375.95
2023-03-10T16:19:59.432Z,98376.79
2023-03-10T16:25:24.771Z,98375.45
2023-03-10T16:30:47.155Z,98392.47
2023-03-10T16:36:14.734Z,98387.18
2023-03-10T16:41:37.470Z,98385.73
2023-03-10T16:47:00.603Z,98380.33
2023-03-10T16:52:23.000Z,98376.73
2023-03-10T16:57:46.946Z,98374.20
2023-03-10T17:03:19.153Z,98362.85
2023-03-10T17:08:42.992Z,98383.40
2023-03-10T17:14:08.912Z,98381.83
2023-03-10T17:19:38.802Z,98389.88
2023-03-10T17:25:08.110Z,98392.63
2023-03-10T17:30:31.541Z,98390.09
2023-03-10T17:35:55.183Z,98383.22
2023-03-10T17:41:19.673Z,98385.86
2023-03-10T17:46:43.529Z,98377.20
2023-03-10T17:52:06.610Z,98372.77
2023-03-10T17:57:28.955Z,98381.53
2023-03-10T18:02:53.929Z,98386.81
2023-03-10T18:08:17.089Z,98382.60
2023-03-10T18:13:39.715Z,98373.95
2023-03-10T18:19:03.165Z,98374.06
2023-03-10T18:24:25.416Z,98360.95
2023-03-10T18:29:48.029Z,98362.55
2023-03-10T18:35:10.360Z,98364.34
2023-03-10T18:40:34.355Z,98348.61
2023-03-10T18:45:56.800Z,98345.44
2023-03-10T18:51:20.590Z,98348.31
2023-03-10T18:56:43.192Z,98339.63
2023-03-10T19:02:05.993Z,98335.31
2023-03-10T19:07:29.703Z,98337.22
2023-03-10T19:12:52.721Z,98317.90
2023-03-10T19:18:15.860Z,98298.58
2023-03-10T19:23:38.201Z,98297.96
2023-03-10T19:29:00.487Z,98297.20
2023-03-10T19:34:22.716Z,98301.64
2023-03-10T19:39:45.403Z,98306.92
2023-03-10T19:45:08.701Z,98308.11
2023-03-10T19:50:32.477Z,98297.66
2023-03-10T19:56:03.118Z,98282.78
2023-03-10T20:01:30.204Z,98288.06
2023-03-10T20:06:52.677Z,98278.46
2023-03-10T20:12:15.957Z,98265.27
2023-03-10T20:17:38.839Z,98261.78
2023-03-10T20:23:02.551Z,98256.50
2023-03-10T20:28:25.290Z,98251.11
2023-03-10T20:33:50.934Z,98257.34
2023-03-10T20:39:13.514Z,98246.78
2023-03-10T20:44:37.848Z,98238.95
2023-03-10T20:50:01.446Z,98226.70
2023-03-10T20:55:31.437Z,98236.55
2023-03-10T21:00:54.169Z,98221.43
2023-03-10T21:06:16.802Z,98221.55
2023-03-10T21:11:41.213Z,98253.68
2023-03-10T21:17:04.420Z,98239.64
2023-03-10T21:22:28.477Z,98217.11
2023-03-10T21:27:53.479Z,98214.59
2023-03-10T21:33:16.506Z,98198.14
2023-03-10T21:38:38.831Z,98189.50
2023-03-10T21:44:03.679Z,98198.45
2023-03-10T21:49:25.892Z,98191.50
2023-03-10T21:54:48.261Z,98177.34
2023-03-10T22:00:12.905Z,98173.14
2023-03-10T22:05:36.355Z,98186.34
2023-03-10T22:10:58.567Z,98209.13
2023-03-10T22:16:24.106Z,98235.63
2023-03-10T22:21:46.369Z,98223.17
2023-03-10T22:27:08.697Z,98216.38
2023-03-10T22:32:31.106Z,98192.63
2023-03-10T22:37:55.259Z,98181.34
2023-03-10T22:43:17.707Z,98160.12
2023-03-10T22:48:39.931Z,98141.87
2023-03-10T22:54:03.413Z,98127.61
2023-03-10T22:59:26.442Z,98130.24
2023-03-10T23:04:48.802Z,98136.36
2023-03-10T23:10:16.005Z,98136.36
2023-03-10T23:15:42.996Z,98130.73
2023-03-10T23:21:08.005Z,98134.33
2023-03-10T23:26:31.833Z,98122.93
2023-03-10T23:31:54.251Z,98122.81
2023-03-10T23:37:17.362Z,98126.41
2023-03-10T23:42:39.701Z,98138.05
2023-03-10T23:48:05.121Z,98140.28
2023-03-10T23:53:28.890Z,98134.92
2023-03-10T23:58:51.463Z,98126.60
